Time;durP1;ratioP1;P1;durP2;ratioP2;P2;SDS_P1;SDS_P2;PMS_P1;PMS_P2;Temp;Humidity;BMP_temperature;BMP_pressure;BME280_temperature;BME280_humidity;BME280_pressure;Samples;Min_cycle;Max_cycle;Signal;HPM_P1;HPM_P2
2023/07/10 00:00:53;;;;;;;9.30;5.88;;;;;;;23.00;85.66;98724.22;4157801;28;20034;-73
2023/07/10 00:02:53;;;;;;;10.02;5.85;;;;;;;22.96;85.11;98724.38;4159605;28;20045;-73
2023/07/10 00:04:54;;;;;;;8.60;6.50;;;;;;;22.94;84.86;98717.63;4156137;28;20049;-73
2023/07/10 00:06:54;;;;;;;7.60;5.75;;;;;;;22.91;85.24;98719.28;4161001;28;20059;-73
2023/07/10 00:08:55;;;;;;;7.75;5.60;;;;;;;22.90;84.28;98700.78;4160362;28;20034;-73
2023/07/10 00:10:55;;;;;;;8.60;6.25;;;;;;;22.92;85.37;98708.78;4159084;28;20358;-73
2023/07/10 00:12:56;;;;;;;10.30;6.00;;;;;;;22.85;87.05;98707.03;4157292;28;20034;-73
2023/07/10 00:14:56;;;;;;;7.05;5.97;;;;;;;22.77;87.66;98710.53;4160336;28;20025;-73
2023/07/10 00:16:56;;;;;;;9.88;5.95;;;;;;;22.71;87.66;98713.91;4162430;28;20124;-73
2023/07/10 00:18:58;;;;;;;7.72;5.65;;;;;;;22.72;86.85;98714.69;4161459;28;20115;-73
2023/07/10 00:20:58;;;;;;;9.40;5.93;;;;;;;22.69;87.20;98712.78;4171619;28;20675;-73
2023/07/10 00:22:58;;;;;;;9.68;6.32;;;;;;;22.65;88.30;98718.53;4158800;28;20041;-73
2023/07/10 00:24:58;;;;;;;8.10;5.65;;;;;;;22.53;88.37;98724.22;4169375;28;20501;-73
2023/07/10 00:26:59;;;;;;;8.88;5.97;;;;;;;22.49;89.25;98723.53;4165864;28;20124;-73
2023/07/10 00:29:05;;;;;;;10.25;6.43;;;;;;;22.40;89.31;98724.22;4163735;28;20068;-73
2023/07/10 00:31:05;;;;;;;8.65;5.88;;;;;;;22.35;89.37;98731.22;4159444;28;20484;-73
2023/07/10 00:33:10;;;;;;;7.70;5.72;;;;;;;22.31;89.04;98726.91;4169065;28;20053;-73
2023/07/10 00:35:16;;;;;;;6.53;5.57;;;;;;;22.24;89.22;98725.13;4157807;28;20390;-73
2023/07/10 00:37:17;;;;;;;9.85;6.18;;;;;;;22.22;88.81;98721.97;4163222;28;20037;-73
2023/07/10 00:39:23;;;;;;;8.02;6.00;;;;;;;22.16;89.09;98712.50;4163437;28;20405;-73
2023/07/10 00:41:28;;;;;;;8.43;5.97;;;;;;;22.14;89.77;98721.41;4160231;28;20052;-73
2023/07/10 00:43:37;;;;;;;9.50;6.30;;;;;;;22.12;89.89;98720.28;4162333;28;20159;-73
2023/07/10 00:45:37;;;;;;;7.57;5.97;;;;;;;22.04;90.08;98714.03;4162304;28;20034;-73
2023/07/10 00:47:41;;;;;;;9.13;6.30;;;;;;;22.05;89.86;98712.00;4160010;28;20044;-73
2023/07/10 00:49:48;;;;;;;9.82;5.70;;;;;;;21.96;90.86;98706.25;4156896;28;20223;-72
2023/07/10 00:52:05;;;;;;;8.85;5.80;;;;;;;21.90;90.47;98699.59;4164376;28;20041;-73
2023/07/10 00:54:19;;;;;;;9.07;6.10;;;;;;;21.86;91.92;98694.88;4155382;28;20080;-73
2023/07/10 00:56:21;;;;;;;8.10;5.82;;;;;;;21.83;91.82;98695.75;4141228;28;20093;-73
2023/07/10 00:58:23;;;;;;;10.38;6.13;;;;;;;21.82;92.19;98701.84;4172125;28;20195;-73
2023/07/10 01:00:24;;;;;;;7.47;6.00;;;;;;;21.79;92.22;98700.72;4170956;28;20409;-73
2023/07/10 01:02:24;;;;;;;9.93;5.85;;;;;;;21.80;92.58;98695.88;4157695;28;20064;-73
2023/07/10 01:04:24;;;;;;;7.47;5.97;;;;;;;21.79;92.46;98700.72;4155582;28;20033;-73
2023/07/10 01:06:31;;;;;;;10.38;5.68;;;;;;;21.76;92.79;98695.19;4159224;28;20136;-73
2023/07/10 01:08:31;;;;;;;8.98;5.70;;;;;;;21.72;93.50;98703.75;4171386;28;20082;-73
2023/07/10 01:10:31;;;;;;;10.85;6.45;;;;;;;21.59;94.20;98705.75;4170744;28;20049;-73
2023/07/10 01:12:32;;;;;;;9.65;6.68;;;;;;;21.49;94.45;98709.66;4170234;28;20041;-73
2023/07/10 01:14:34;;;;;;;7.72;5.93;;;;;;;21.40;94.97;98712.34;4171725;28;20064;-73
2023/07/10 01:16:35;;;;;;;9.98;6.53;;;;;;;21.34;95.87;98711.28;4160990;28;20033;-73
2023/07/10 01:18:37;;;;;;;15.23;6.30;;;;;;;21.31;95.75;98718.63;4158201;28;20045;-73
2023/07/10 01:20:46;;;;;;;6.88;5.65;;;;;;;21.32;96.10;98714.56;4156341;28;20420;-73
2023/07/10 01:22:46;;;;;;;11.13;6.43;;;;;;;21.26;96.34;98716.31;4155838;28;20472;-73
2023/07/10 01:24:52;;;;;;;8.68;6.13;;;;;;;21.22;96.52;98707.19;4157711;28;20308;-73
2023/07/10 01:26:54;;;;;;;7.93;6.85;;;;;;;21.18;97.03;98712.88;4163473;28;20048;-73
2023/07/10 01:28:56;;;;;;;;;;;;;;;21.14;97.87;98722.69;4158419;28;20033;-73
2023/07/10 01:30:58;;;;;;;8.90;6.10;;;;;;;21.11;98.00;98726.41;4154799;28;19921;-73
2023/07/10 01:32:58;;;;;;;8.75;6.32;;;;;;;21.12;98.30;98725.16;4161199;28;20033;-73
2023/07/10 01:35:03;;;;;;;11.52;6.85;;;;;;;21.06;98.31;98727.72;4167286;28;20337;-73
2023/07/10 01:37:05;;;;;;;7.10;6.22;;;;;;;20.98;99.39;98717.88;4161656;28;20037;-73
2023/07/10 01:39:09;;;;;;;13.35;7.30;;;;;;;20.90;99.93;98719.28;4166205;28;20361;-73
2023/07/10 01:41:24;;;;;;;10.43;6.55;;;;;;;20.79;100.00;98702.72;4159406;28;20052;-73
2023/07/10 01:43:24;;;;;;;11.60;7.10;;;;;;;20.70;100.00;98703.34;4162003;28;20049;-73
2023/07/10 01:45:26;;;;;;;10.23;6.25;;;;;;;20.65;100.00;98694.63;4156659;28;20033;-73
2023/07/10 01:47:26;;;;;;;10.82;7.28;;;;;;;20.58;100.00;98706.84;4155882;28;20160;-73
2023/07/10 01:49:57;;;;;;;8.93;6.00;;;;;;;20.59;100.00;98699.19;4156713;28;20529;-73
2023/07/10 01:52:00;;;;;;;9.60;6.28;;;;;;;20.58;100.00;98701.22;4151320;28;20465;-73
2023/07/10 01:54:02;;;;;;;;;;;;;;;20.52;100.00;98697.38;4164217;28;20044;-73
2023/07/10 01:56:03;;;;;;;7.90;6.70;;;;;;;20.44;100.00;98693.97;4155888;28;19917;-73
2023/07/10 01:58:04;;;;;;;13.15;6.50;;;;;;;20.39;100.00;98696.47;4156563;28;20049;-73
2023/07/10 02:00:05;;;;;;;12.13;7.35;;;;;;;20.35;100.00;98682.50;4169075;28;20029;-73
2023/07/10 02:02:05;;;;;;;10.07;6.75;;;;;;;20.30;100.00;98685.84;4170124;28;20029;-73
2023/07/10 02:04:06;;;;;;;12.60;6.78;;;;;;;20.32;100.00;98686.19;4160246;28;20038;-73
2023/07/10 02:06:06;;;;;;;11.73;6.75;;;;;;;20.32;100.00;98677.75;4156047;28;20025;-73
2023/07/10 02:08:07;;;;;;;8.68;7.00;;;;;;;20.40;100.00;98675.56;4156286;28;20397;-73
2023/07/10 02:10:07;;;;;;;9.85;7.15;;;;;;;20.36;100.00;98674.88;4156471;28;20061;-73
2023/07/10 02:12:08;;;;;;;10.55;7.13;;;;;;;20.35;100.00;98681.69;4171605;28;20059;-73
2023/07/10 02:14:08;;;;;;;12.77;6.97;;;;;;;20.24;100.00;98686.81;4160708;28;20045;-73
2023/07/10 02:16:11;;;;;;;12.73;7.05;;;;;;;20.14;100.00;98691.44;4158585;28;20112;-73
2023/07/10 02:18:12;;;;;;;11.38;6.90;;;;;;;20.14;100.00;98686.63;4167088;28;20025;-73
2023/07/10 02:20:12;;;;;;;11.40;6.68;;;;;;;20.13;100.00;98690.66;4159777;28;20068;-73
2023/07/10 02:22:12;;;;;;;10.25;6.57;;;;;;;20.14;100.00;98709.09;4172906;28;20068;-73
2023/07/10 02:24:13;;;;;;;11.10;7.43;;;;;;;20.15;100.00;98707.06;4171645;28;20529;-73
2023/07/10 02:26:17;;;;;;;11.57;7.03;;;;;;;20.24;100.00;98724.13;4173699;28;20083;-73
2023/07/10 02:28:17;;;;;;;13.23;6.63;;;;;;;20.28;100.00;98722.03;4172908;28;20037;-73
2023/07/10 02:30:17;;;;;;;24.13;8.65;;;;;;;20.35;100.00;98721.81;4171728;28;20381;-73
2023/07/10 02:32:18;;;;;;;15.18;7.53;;;;;;;20.39;100.00;98721.75;4171078;28;20109;-73
2023/07/10 02:34:18;;;;;;;11.00;7.32;;;;;;;20.42;100.00;98729.31;4169470;28;20412;-73
2023/07/10 02:36:20;;;;;;;10.48;7.38;;;;;;;20.42;100.00;98727.28;4172567;28;20114;-73
2023/07/10 02:38:21;;;;;;;9.45;7.05;;;;;;;20.46;100.00;98718.81;4167891;28;20044;-73
2023/07/10 02:40:21;;;;;;;9.05;6.88;;;;;;;20.46;100.00;98721.63;4171466;28;20171;-73
2023/07/10 02:42:23;;;;;;;8.57;6.30;;;;;;;20.52;100.00;98727.47;4158759;28;20045;-73
2023/07/10 02:44:23;;;;;;;9.05;6.47;;;;;;;20.51;100.00;98714.66;4173395;28;20045;-72
2023/07/10 02:46:24;;;;;;;8.02;6.82;;;;;;;20.50;100.00;98705.44;4161029;28;20041;-73
2023/07/10 02:48:24;;;;;;;7.75;6.28;;;;;;;20.49;100.00;98712.31;4158519;28;20050;-73
2023/07/10 02:50:24;;;;;;;9.55;6.47;;;;;;;20.50;100.00;98715.91;4159801;28;20049;-73
2023/07/10 02:52:24;;;;;;;11.98;7.13;;;;;;;20.48;100.00;98717.13;4171367;28;20068;-73
2023/07/10 02:54:25;;;;;;;9.57;6.20;;;;;;;20.42;100.00;98726.50;4174080;28;20045;-73
2023/07/10 02:56:25;;;;;;;11.52;6.53;;;;;;;20.35;100.00;98729.47;4172998;28;20025;-72
2023/07/10 02:58:25;;;;;;;8.85;6.97;;;;;;;20.30;100.00;98733.59;4173834;28;20064;-73
2023/07/10 03:00:26;;;;;;;9.55;7.15;;;;;;;20.31;100.00;98751.25;4170042;28;20080;-73
2023/07/10 03:02:26;;;;;;;8.60;7.10;;;;;;;20.30;100.00;98761.72;4159918;28;20052;-73
2023/07/10 03:04:26;;;;;;;9.02;7.07;;;;;;;20.32;100.00;98764.88;4159468;28;20049;-73
2023/07/10 03:06:27;;;;;;;9.52;6.53;;;;;;;20.31;100.00;98780.13;4168655;28;20073;-73
2023/07/10 03:08:29;;;;;;;12.30;7.00;;;;;;;20.31;100.00;98782.16;4163454;28;20556;-72
2023/07/10 03:10:29;;;;;;;11.45;7.05;;;;;;;20.39;100.00;98794.81;4171129;28;20040;-73
2023/07/10 03:12:29;;;;;;;11.00;7.82;;;;;;;20.33;100.00;98788.91;4164935;28;20043;-73
2023/07/10 03:14:29;;;;;;;13.13;8.35;;;;;;;20.35;100.00;98774.44;4164674;28;20051;-73
2023/07/10 03:16:30;;;;;;;10.23;7.03;;;;;;;20.38;100.00;98748.28;4170318;28;20056;-73
2023/07/10 03:18:31;;;;;;;8.65;7.03;;;;;;;20.41;100.00;98741.78;4158660;28;20057;-72
2023/07/10 03:20:31;;;;;;;14.38;6.93;;;;;;;20.47;100.00;98728.81;4159337;28;20037;-73
2023/07/10 03:22:32;;;;;;;10.98;6.55;;;;;;;20.56;100.00;98711.34;4162985;28;20037;-73
2023/07/10 03:24:32;;;;;;;13.55;7.85;;;;;;;20.56;100.00;98700.88;4170020;28;20552;-73
2023/07/10 03:26:32;;;;;;;14.20;7.18;;;;;;;20.54;100.00;98688.50;4163397;28;20049;-72
2023/07/10 03:28:37;;;;;;;12.13;7.45;;;;;;;20.44;100.00;98693.19;4168469;28;20046;-73
2023/07/10 03:30:39;;;;;;;17.38;6.97;;;;;;;20.42;100.00;98692.78;4157150;28;20052;-73
2023/07/10 03:32:39;;;;;;;13.17;7.27;;;;;;;20.39;100.00;98686.00;4157985;28;20052;-73
2023/07/10 03:34:39;;;;;;;8.98;7.07;;;;;;;20.41;100.00;98688.38;4162906;28;20201;-73
2023/07/10 03:36:40;;;;;;;13.23;7.95;;;;;;;20.41;100.00;98685.56;4165214;28;20427;-73
2023/07/10 03:38:41;;;;;;;11.60;8.30;;;;;;;20.33;100.00;98679.34;4167568;28;20045;-73
2023/07/10 03:40:52;;;;;;;14.98;8.13;;;;;;;20.28;100.00;98673.47;4164823;28;20358;-73
2023/07/10 03:42:52;;;;;;;14.50;7.88;;;;;;;20.22;100.00;98675.22;4168234;28;20548;-73
2023/07/10 03:44:53;;;;;;;18.05;9.00;;;;;;;20.10;100.00;98671.06;4157552;28;20068;-73
2023/07/10 03:46:53;;;;;;;13.95;7.28;;;;;;;20.08;100.00;98656.69;4170271;28;20037;-73
2023/07/10 03:48:53;;;;;;;12.40;7.60;;;;;;;20.10;100.00;98663.44;4173429;28;20110;-73
2023/07/10 03:50:54;;;;;;;15.45;8.13;;;;;;;20.12;100.00;98654.59;4158628;28;20517;-73
2023/07/10 03:52:54;;;;;;;16.30;8.48;;;;;;;20.06;100.00;98661.94;4160831;28;20045;-73
2023/07/10 03:54:54;;;;;;;15.93;7.70;;;;;;;20.07;100.00;98675.56;4161737;28;20118;-73
2023/07/10 03:56:55;;;;;;;17.88;7.38;;;;;;;20.04;100.00;98676.44;4171123;28;20334;-72
2023/07/10 03:58:55;;;;;;;18.20;7.55;;;;;;;20.05;100.00;98674.41;4171379;28;20057;-72
2023/07/10 04:00:57;;;;;;;13.65;8.02;;;;;;;20.02;100.00;98669.66;4159299;28;20433;-73
2023/07/10 04:02:57;;;;;;;12.85;8.40;;;;;;;19.99;100.00;98665.72;4164290;28;20424;-73
2023/07/10 04:04:57;;;;;;;15.93;8.10;;;;;;;19.97;100.00;98668.16;4171456;28;20059;-73
2023/07/10 04:06:58;;;;;;;14.35;8.20;;;;;;;19.88;100.00;98679.22;4164989;28;20092;-73
2023/07/10 04:08:59;;;;;;;12.10;8.00;;;;;;;19.82;100.00;98678.16;4160463;28;20478;-72
2023/07/10 04:11:03;;;;;;;10.70;7.47;;;;;;;19.76;100.00;98669.44;4162879;28;20510;-73
2023/07/10 04:13:03;;;;;;;10.95;8.02;;;;;;;19.72;100.00;98674.34;4156320;28;20049;-73
2023/07/10 04:15:04;;;;;;;9.52;7.38;;;;;;;19.71;100.00;98680.41;4157164;28;20532;-72
2023/07/10 04:17:05;;;;;;;12.85;8.15;;;;;;;19.66;100.00;98692.94;4157313;28;20099;-73
2023/07/10 04:19:05;;;;;;;10.40;7.72;;;;;;;19.69;100.00;98686.44;4157612;28;20041;-73
2023/07/10 04:21:09;;;;;;;8.80;7.68;;;;;;;19.67;100.00;98693.72;4165811;28;20076;-73
2023/07/10 04:23:10;;;;;;;11.13;7.68;;;;;;;19.67;100.00;98700.13;4162429;28;20158;-73
2023/07/10 04:25:10;;;;;;;10.70;8.23;;;;;;;19.62;100.00;98706.25;4157271;28;20124;-72
2023/07/10 04:27:10;;;;;;;11.80;8.32;;;;;;;19.59;100.00;98705.09;4156602;28;20124;-73
2023/07/10 04:29:12;;;;;;;12.93;8.10;;;;;;;19.58;100.00;98703.50;4156900;28;20088;-73
2023/07/10 04:31:13;;;;;;;9.37;7.67;;;;;;;19.59;100.00;98693.88;4157985;28;20045;-73
2023/07/10 04:33:20;;;;;;;11.27;8.40;;;;;;;19.63;100.00;98691.00;4163801;28;20037;-73
2023/07/10 04:35:20;;;;;;;11.32;7.95;;;;;;;19.65;100.00;98685.72;4161524;28;20473;-72
2023/07/10 04:37:21;;;;;;;15.20;8.18;;;;;;;19.67;100.00;98686.09;4161587;28;20085;-72
2023/07/10 04:39:21;;;;;;;14.23;8.00;;;;;;;19.71;100.00;98683.22;4161681;28;20134;-72
2023/07/10 04:41:23;;;;;;;10.77;7.85;;;;;;;19.73;100.00;98689.19;4169128;28;20095;-72
2023/07/10 04:43:26;;;;;;;12.43;8.13;;;;;;;19.79;100.00;98681.84;4164500;28;20071;-73
2023/07/10 04:45:26;;;;;;;10.40;8.82;;;;;;;19.84;100.00;98670.06;4156844;28;20039;-72
2023/07/10 04:47:26;;;;;;;11.60;8.27;;;;;;;19.79;100.00;98679.81;4156770;28;20073;-72
2023/07/10 04:49:27;;;;;;;18.30;8.95;;;;;;;19.66;100.00;98695.72;4157181;28;20049;-72
2023/07/10 04:51:27;;;;;;;12.98;8.13;;;;;;;19.63;100.00;98699.41;4159119;28;20075;-72
2023/07/10 04:53:28;;;;;;;11.98;8.35;;;;;;;19.65;100.00;98694.16;4152579;28;20141;-72
2023/07/10 04:55:28;;;;;;;17.05;9.02;;;;;;;19.70;100.00;98687.25;4156453;28;20050;-72
2023/07/10 04:57:28;;;;;;;10.68;8.23;;;;;;;19.78;100.00;98685.88;4134673;28;20512;-72
2023/07/10 04:59:29;;;;;;;12.88;8.85;;;;;;;19.69;100.00;98683.63;4082328;28;20156;-72
2023/07/10 05:01:34;;;;;;;11.68;8.43;;;;;;;19.64;100.00;98692.56;4162567;28;20482;-72
2023/07/10 05:03:35;;;;;;;12.82;8.93;;;;;;;19.59;100.00;98699.47;4159793;28;20305;-72
2023/07/10 05:05:35;;;;;;;14.35;8.95;;;;;;;19.56;100.00;98703.16;4155159;28;20527;-72
2023/07/10 05:07:35;;;;;;;13.82;8.38;;;;;;;19.54;100.00;98707.59;4156450;28;20037;-72
2023/07/10 05:09:36;;;;;;;14.50;9.30;;;;;;;19.57;100.00;98704.75;4155719;28;20036;-73
2023/07/10 05:11:36;;;;;;;12.02;8.48;;;;;;;19.65;100.00;98696.97;4148956;28;20708;-73
2023/07/10 05:13:37;;;;;;;14.05;8.75;;;;;;;19.74;100.00;98708.38;4159144;28;20117;-73
2023/07/10 05:15:37;;;;;;;13.95;8.93;;;;;;;19.78;100.00;98714.72;4152986;28;20033;-72
2023/07/10 05:17:37;;;;;;;10.15;9.10;;;;;;;19.80;100.00;98706.66;4151138;28;20405;-72
2023/07/10 05:19:38;;;;;;;10.65;8.88;;;;;;;19.86;100.00;98710.53;4151225;28;20033;-72
2023/07/10 05:21:38;;;;;;;14.20;8.80;;;;;;;19.91;100.00;98714.84;4147419;28;20473;-72
2023/07/10 05:23:38;;;;;;;10.55;7.97;;;;;;;20.02;100.00;98709.75;4151404;28;20037;-73
2023/07/10 05:25:39;;;;;;;13.27;9.00;;;;;;;20.07;100.00;98703.63;4154998;28;20045;-72
2023/07/10 05:27:39;;;;;;;13.07;8.75;;;;;;;20.17;100.00;98699.78;4159222;28;20157;-73
2023/07/10 05:29:39;;;;;;;14.20;8.30;;;;;;;20.26;100.00;98707.59;4162616;28;20033;-73
2023/07/10 05:31:40;;;;;;;12.52;8.30;;;;;;;20.36;100.00;98717.03;4152158;28;20052;-72
2023/07/10 05:33:41;;;;;;;10.48;8.05;;;;;;;20.50;100.00;98718.72;4156807;28;20382;-72
2023/07/10 05:35:52;;;;;;;14.43;9.30;;;;;;;20.76;100.00;98718.44;4162851;28;20095;-72
2023/07/10 05:37:52;;;;;;;13.35;9.45;;;;;;;20.82;100.00;98715.09;4167012;28;20033;-73
2023/07/10 05:39:53;;;;;;;13.82;9.00;;;;;;;20.86;100.00;98694.09;4164051;28;20508;-72
2023/07/10 05:41:53;;;;;;;14.65;9.02;;;;;;;20.83;100.00;98689.34;4156511;28;20124;-73
2023/07/10 05:43:53;;;;;;;11.63;9.25;;;;;;;20.85;100.00;98688.88;4155768;28;20053;-72
2023/07/10 05:45:54;;;;;;;13.60;9.25;;;;;;;20.81;100.00;98691.81;4155830;28;20441;-73
2023/07/10 05:47:54;;;;;;;14.35;8.35;;;;;;;20.82;100.00;98692.59;4156455;28;20042;-72
2023/07/10 05:49:54;;;;;;;11.20;8.48;;;;;;;20.87;100.00;98700.50;4157874;28;20037;-73
2023/07/10 05:51:55;;;;;;;15.35;9.38;;;;;;;20.83;100.00;98694.97;4161395;28;20025;-73
2023/07/10 05:53:56;;;;;;;10.68;8.55;;;;;;;20.87;100.00;98698.47;4160070;28;20045;-73
2023/07/10 05:55:57;;;;;;;13.48;9.20;;;;;;;21.00;100.00;98715.41;4159989;28;20029;-72
2023/07/10 05:57:58;;;;;;;10.32;8.10;;;;;;;21.20;100.00;98706.84;4158964;28;20089;-73
2023/07/10 05:59:58;;;;;;;15.82;8.73;;;;;;;21.35;100.00;98712.88;4163936;28;20436;-73
2023/07/10 06:01:58;;;;;;;10.27;8.57;;;;;;;21.35;100.00;98710.06;4165213;28;20071;-73
2023/07/10 06:03:58;;;;;;;10.45;8.23;;;;;;;21.47;100.00;98700.88;4158632;28;20072;-72
2023/07/10 06:06:04;;;;;;;11.02;7.82;;;;;;;21.42;100.00;98690.94;4159164;28;20084;-73
2023/07/10 06:08:05;;;;;;;11.20;7.53;;;;;;;21.49;100.00;98696.38;4158591;28;20358;-72
2023/07/10 06:10:06;;;;;;;10.45;8.00;;;;;;;21.43;100.00;98700.19;4159519;28;20026;-73
2023/07/10 06:12:07;;;;;;;11.65;8.05;;;;;;;21.59;100.00;98686.03;4158711;28;20023;-73
2023/07/10 06:14:07;;;;;;;10.05;8.10;;;;;;;21.76;100.00;98696.00;4166982;28;20035;-72
2023/07/10 06:16:10;;;;;;;10.45;8.38;;;;;;;21.94;100.00;98697.47;4155860;28;20100;-72
2023/07/10 06:18:11;;;;;;;8.63;7.32;;;;;;;22.00;100.00;98696.44;4154979;28;20236;-72
2023/07/10 06:20:11;;;;;;;22.90;8.40;;;;;;;22.11;100.00;98684.88;4156306;28;20123;-72
2023/07/10 06:22:12;;;;;;;9.75;7.10;;;;;;;22.24;100.00;98690.50;4164374;28;20022;-73
2023/07/10 06:24:13;;;;;;;14.40;8.02;;;;;;;22.38;100.00;98690.06;4163184;28;20362;-73
2023/07/10 06:26:13;;;;;;;11.93;8.13;;;;;;;22.47;100.00;98687.34;4158910;28;20408;-72
2023/07/10 06:28:14;;;;;;;12.20;7.53;;;;;;;22.60;100.00;98698.59;4158910;28;20104;-73
2023/07/10 06:30:15;;;;;;;14.95;7.57;;;;;;;22.73;100.00;98704.97;4158984;28;20065;-72
2023/07/10 06:32:15;;;;;;;9.38;7.07;;;;;;;22.83;100.00;98701.00;4158693;28;20402;-73
2023/07/10 06:34:15;;;;;;;11.07;6.97;;;;;;;22.91;99.47;98693.91;4158087;28;20064;-73
2023/07/10 06:36:16;;;;;;;7.43;6.38;;;;;;;23.06;99.48;98708.31;4158711;28;20116;-73
2023/07/10 06:38:16;;;;;;;9.32;6.65;;;;;;;23.17;98.04;98702.28;4158837;28;20427;-73
2023/07/10 06:40:17;;;;;;;11.65;6.85;;;;;;;23.25;96.89;98689.47;4157106;28;20416;-73
2023/07/10 06:42:17;;;;;;;10.50;6.68;;;;;;;23.31;96.90;98701.75;4157968;28;20519;-73
2023/07/10 06:44:17;;;;;;;8.10;6.30;;;;;;;23.40;96.70;98701.81;4157939;28;20128;-73
2023/07/10 06:46:18;;;;;;;10.68;6.60;;;;;;;23.45;96.54;98706.09;4158740;28;20536;-73
2023/07/10 06:48:18;;;;;;;13.52;6.38;;;;;;;23.55;95.54;98710.56;4157450;28;20037;-73
2023/07/10 06:50:19;;;;;;;10.60;6.53;;;;;;;23.65;94.09;98711.44;4159771;28;20124;-72
2023/07/10 06:52:19;;;;;;;10.80;6.30;;;;;;;23.77;93.29;98707.75;4161587;28;20086;-73
2023/07/10 06:54:19;;;;;;;10.00;6.03;;;;;;;23.86;92.71;98704.19;4158273;28;20029;-73
2023/07/10 06:56:20;;;;;;;8.43;6.32;;;;;;;23.98;91.64;98704.09;4160148;28;20110;-73
2023/07/10 06:58:20;;;;;;;8.05;5.80;;;;;;;24.04;91.52;98705.06;4174222;28;20153;-73
2023/07/10 07:00:21;;;;;;;8.68;6.53;;;;;;;24.18;89.94;98708.59;4159433;28;20037;-73
2023/07/10 07:02:21;;;;;;;7.18;5.68;;;;;;;24.20;90.02;98711.75;4157966;28;20124;-73
2023/07/10 07:04:21;;;;;;;7.78;6.07;;;;;;;24.20;89.28;98706.09;4158662;28;20452;-73
2023/07/10 07:06:22;;;;;;;8.93;5.85;;;;;;;24.18;88.95;98712.22;4163402;28;20112;-73
2023/07/10 07:08:23;;;;;;;7.55;6.00;;;;;;;24.23;88.26;98700.28;4173200;28;20091;-73
2023/07/10 07:10:23;;;;;;;7.32;5.25;;;;;;;24.28;89.14;98705.34;4165174;28;20137;-73
2023/07/10 07:12:24;;;;;;;9.55;5.63;;;;;;;24.35;88.74;98718.44;4173316;28;20476;-72
2023/07/10 07:14:26;;;;;;;10.85;6.55;;;;;;;24.44;88.57;98726.94;4172605;28;20484;-73
2023/07/10 07:16:26;;;;;;;9.00;5.88;;;;;;;24.49;87.28;98723.50;4163209;28;20042;-73
2023/07/10 07:18:26;;;;;;;8.27;5.68;;;;;;;24.52;87.31;98730.28;4158651;28;20041;-72
2023/07/10 07:20:27;;;;;;;9.35;5.95;;;;;;;24.56;86.79;98728.06;4157971;28;20420;-72
2023/07/10 07:22:27;;;;;;;7.75;5.95;;;;;;;24.60;86.97;98732.34;4157811;28;20508;-73
2023/07/10 07:24:27;;;;;;;8.45;5.93;;;;;;;24.70;86.09;98743.69;4158310;28;20053;-73
2023/07/10 07:26:28;;;;;;;7.80;5.50;;;;;;;24.64;85.67;98730.13;4157058;28;20175;-73
2023/07/10 07:28:28;;;;;;;8.13;5.75;;;;;;;24.59;86.21;98744.13;4167259;28;20533;-73
2023/07/10 07:30:29;;;;;;;6.88;5.65;;;;;;;24.65;86.05;98751.50;4161631;28;20150;-73
2023/07/10 07:32:30;;;;;;;6.93;4.97;;;;;;;24.65;85.50;98742.25;4160227;28;20054;-73
2023/07/10 07:34:30;;;;;;;9.88;5.32;;;;;;;24.68;85.64;98734.88;4162046;28;20042;-72
2023/07/10 07:36:34;;;;;;;9.07;5.63;;;;;;;24.77;85.01;98746.22;4156431;28;20124;-73
2023/07/10 07:38:34;;;;;;;7.88;5.88;;;;;;;24.73;84.77;98743.50;4158049;28;20286;-73
2023/07/10 07:40:36;;;;;;;8.25;5.07;;;;;;;24.80;84.31;98733.94;4158202;28;20087;-72
2023/07/10 07:42:36;;;;;;;7.10;4.80;;;;;;;24.96;83.10;98741.38;4157218;28;20128;-73
2023/07/10 07:44:36;;;;;;;6.88;4.93;;;;;;;24.93;83.37;98735.41;4157635;28;20338;-73
2023/07/10 07:46:37;;;;;;;10.07;5.35;;;;;;;24.98;82.36;98741.69;4159936;28;20041;-73
2023/07/10 07:48:37;;;;;;;6.65;5.38;;;;;;;24.98;82.50;98741.69;4172844;28;20048;-73
2023/07/10 07:50:37;;;;;;;6.82;4.85;;;;;;;25.07;81.87;98751.03;4171971;28;20041;-73
2023/07/10 07:52:37;;;;;;;7.20;5.05;;;;;;;25.08;81.66;98746.94;4171764;28;20041;-73
2023/07/10 07:54:38;;;;;;;8.13;5.22;;;;;;;25.13;81.85;98739.84;4160814;28;20461;-73
2023/07/10 07:56:38;;;;;;;9.23;5.45;;;;;;;25.03;82.29;98743.94;4158085;28;20049;-73
2023/07/10 07:58:39;;;;;;;10.68;5.13;;;;;;;25.04;81.73;98756.81;4157540;28;20096;-73
2023/07/10 08:00:39;;;;;;;8.02;5.00;;;;;;;25.05;82.09;98747.06;4157693;28;20033;-73
2023/07/10 08:02:40;;;;;;;9.48;5.00;;;;;;;25.04;82.10;98754.00;4157088;28;20048;-73
2023/07/10 08:04:41;;;;;;;6.20;5.10;;;;;;;25.05;81.81;98762.00;4168208;28;20134;-73
2023/07/10 08:06:41;;;;;;;8.00;4.38;;;;;;;25.05;80.69;98773.31;4172254;28;20064;-73
2023/07/10 08:08:41;;;;;;;7.85;4.55;;;;;;;25.02;80.93;98782.75;4167545;28;20042;-73
2023/07/10 08:10:46;;;;;;;6.68;4.75;;;;;;;25.07;80.61;98770.84;4157220;28;20051;-72
2023/07/10 08:12:46;;;;;;;7.68;4.70;;;;;;;25.29;80.45;98776.34;4156338;28;20121;-73
2023/07/10 08:14:46;;;;;;;6.63;4.88;;;;;;;25.29;81.23;98781.22;4157417;28;20171;-73
2023/07/10 08:16:46;;;;;;;6.18;4.57;;;;;;;25.38;80.25;98773.53;4157418;28;20074;-73
2023/07/10 08:18:48;;;;;;;6.47;4.30;;;;;;;25.38;80.43;98790.50;4157260;28;20037;-73
2023/07/10 08:20:48;;;;;;;7.87;4.40;;;;;;;25.34;81.21;98783.44;4157301;28;20053;-73
2023/07/10 08:22:48;;;;;;;10.75;4.38;;;;;;;25.39;80.54;98775.09;4156469;28;20034;-73
2023/07/10 08:24:49;;;;;;;7.25;4.65;;;;;;;25.33;80.76;98779.81;4157279;28;20115;-73
2023/07/10 08:26:49;;;;;;;5.60;4.43;;;;;;;25.27;82.09;98784.53;4157420;28;20398;-73
2023/07/10 08:28:50;;;;;;;5.45;4.70;;;;;;;24.94;82.56;98781.47;4157017;28;20127;-73
2023/07/10 08:30:50;;;;;;;6.38;4.97;;;;;;;25.06;83.83;98788.28;4157073;28;20370;-73
2023/07/10 08:32:50;;;;;;;7.07;5.50;;;;;;;25.12;83.85;98794.91;4156689;28;20048;-73
2023/07/10 08:34:52;;;;;;;6.40;4.90;;;;;;;25.19;84.11;98786.09;4164007;28;20127;-73
2023/07/10 08:36:53;;;;;;;6.28;4.97;;;;;;;25.37;83.47;98788.94;4171593;28;20083;-73
2023/07/10 08:38:53;;;;;;;7.50;4.68;;;;;;;25.41;84.20;98778.25;4171034;28;20416;-73
2023/07/10 08:40:57;;;;;;;8.55;5.47;;;;;;;25.54;84.24;98783.75;4171904;28;20048;-72
2023/07/10 08:43:01;;;;;;;8.30;5.20;;;;;;;25.52;84.77;98796.81;4170654;28;20037;-73
2023/07/10 08:45:01;;;;;;;7.80;5.07;;;;;;;25.60;85.17;98798.09;4156347;28;20076;-73
2023/07/10 08:47:15;;;;;;;5.97;4.88;;;;;;;25.70;85.46;98805.31;4160042;28;20033;-73
2023/07/10 08:49:37;;;;;;;6.97;4.97;;;;;;;25.79;84.37;98793.22;4155681;28;20039;-73
2023/07/10 08:52:01;;;;;;;12.10;5.65;;;;;;;25.71;85.36;98806.91;4156176;28;20033;-73
2023/07/10 08:54:06;;;;;;;8.50;5.78;;;;;;;25.85;85.33;98806.28;4154961;28;20141;-73
2023/07/10 08:56:15;;;;;;;7.82;5.43;;;;;;;25.81;84.99;98816.19;4169370;28;20029;-73
2023/07/10 08:58:25;;;;;;;8.73;5.47;;;;;;;25.69;85.41;98824.38;4156090;28;20021;-73
2023/07/10 09:00:30;;;;;;;7.63;5.50;;;;;;;25.58;86.21;98818.41;4156089;28;20091;-73
2023/07/10 09:02:50;;;;;;;8.35;5.40;;;;;;;25.49;85.34;98829.72;4154463;28;20048;-73
2023/07/10 09:04:50;;;;;;;7.50;5.25;;;;;;;25.66;85.78;98816.03;4156249;28;20034;-73
2023/07/10 09:06:59;;;;;;;6.18;4.95;;;;;;;25.77;83.58;98834.16;4156154;28;20068;-73
2023/07/10 09:09:00;;;;;;;7.85;5.35;;;;;;;25.64;84.81;98841.97;4157842;28;20041;-73
2023/07/10 09:11:03;;;;;;;11.95;5.90;;;;;;;25.47;86.21;98829.38;4170274;28;20037;-73
2023/07/10 09:13:04;;;;;;;8.48;5.57;;;;;;;25.61;86.00;98830.81;4169306;28;20045;-73
2023/07/10 09:15:11;;;;;;;7.68;5.18;;;;;;;25.86;84.21;98836.19;4165235;28;20064;-73
2023/07/10 09:17:19;;;;;;;8.52;5.80;;;;;;;25.71;85.55;98835.25;4156206;28;20312;-73
2023/07/10 09:19:20;;;;;;;6.07;5.47;;;;;;;25.79;84.50;98839.34;4156327;28;20371;-73
2023/07/10 09:21:25;;;;;;;6.25;5.65;;;;;;;25.98;84.16;98848.63;4156400;28;20085;-73
2023/07/10 09:23:30;;;;;;;10.63;5.63;;;;;;;25.81;83.94;98833.19;4170802;28;20127;-73
2023/07/10 09:25:36;;;;;;;8.38;6.30;;;;;;;25.93;83.06;98835.88;4168534;28;20171;-73